Time;durP1;ratioP1;P1;durP2;ratioP2;P2;SDS_P1;SDS_P2;PMS_P1;PMS_P2;Temp;Humidity;BMP_temperature;BMP_pressure;BME280_temperature;BME280_humidity;BME280_pressure;Samples;Min_cycle;Max_cycle;Signal;HPM_P1;HPM_P2
2024/01/12 00:00:45;;;;;;;27.20;9.55;;;2.20;99.90;;;;;;5092119;28;20075;-66
2024/01/12 00:03:11;;;;;;;30.48;10.25;;;2.30;99.90;;;;;;5091740;28;20037;-66
2024/01/12 00:05:37;;;;;;;26.17;9.82;;;2.30;99.90;;;;;;5091981;28;20028;-66
2024/01/12 00:08:02;;;;;;;27.02;9.25;;;2.30;99.90;;;;;;5092046;28;20073;-66
2024/01/12 00:10:28;;;;;;;26.02;10.43;;;2.30;99.90;;;;;;5091991;28;20355;-66
2024/01/12 00:12:54;;;;;;;28.15;10.40;;;2.30;99.90;;;;;;5091889;28;20032;-66
2024/01/12 00:15:19;;;;;;;32.95;10.73;;;2.30;99.90;;;;;;5091939;28;20029;-66
2024/01/12 00:17:45;;;;;;;26.65;9.27;;;2.30;99.90;;;;;;5091912;28;20036;-66
2024/01/12 00:20:11;;;;;;;26.13;9.35;;;2.30;99.90;;;;;;5091842;28;20060;-66
2024/01/12 00:22:36;;;;;;;25.45;9.68;;;2.30;99.90;;;;;;5091948;28;20142;-66
2024/01/12 00:25:02;;;;;;;25.25;9.00;;;2.30;99.90;;;;;;5091856;28;20079;-66
2024/01/12 00:27:28;;;;;;;30.55;9.98;;;2.40;99.90;;;;;;5091636;28;20024;-66
2024/01/12 00:29:54;;;;;;;26.45;9.63;;;2.40;99.90;;;;;;5091748;28;20037;-66
2024/01/12 00:32:19;;;;;;;27.52;9.27;;;2.40;99.90;;;;;;5091586;28;20028;-66
2024/01/12 00:34:45;;;;;;;21.65;8.43;;;2.40;99.90;;;;;;5091682;28;20482;-66
2024/01/12 00:37:10;;;;;;;28.05;10.02;;;2.40;99.90;;;;;;5091629;28;20035;-66
2024/01/12 00:39:36;;;;;;;30.20;9.85;;;2.40;99.90;;;;;;5091762;28;20052;-66
2024/01/12 00:42:03;;;;;;;26.77;9.00;;;2.40;99.90;;;;;;5091779;28;20088;-66
2024/01/12 00:44:28;;;;;;;22.88;9.07;;;2.40;99.90;;;;;;5091672;28;20099;-66
2024/01/12 00:46:55;;;;;;;25.65;8.77;;;2.30;99.90;;;;;;5095190;28;20029;-66
2024/01/12 00:49:21;;;;;;;26.00;9.75;;;2.30;99.90;;;;;;5095077;28;20104;-66
2024/01/12 00:51:47;;;;;;;19.48;8.43;;;2.30;99.90;;;;;;5095347;28;20046;-66
2024/01/12 00:54:13;;;;;;;26.55;10.10;;;2.30;99.90;;;;;;5095255;28;20024;-66
2024/01/12 00:56:38;;;;;;;23.60;8.02;;;2.30;99.90;;;;;;5095324;28;20091;-66
2024/01/12 00:59:05;;;;;;;25.92;9.63;;;2.30;99.90;;;;;;5095234;28;20031;-66
2024/01/12 01:01:31;;;;;;;28.73;9.57;;;2.30;99.90;;;;;;5095084;28;20051;-66
2024/01/12 01:03:57;;;;;;;24.15;9.35;;;2.30;99.90;;;;;;5094933;28;20040;-66
2024/01/12 01:06:22;;;;;;;28.30;9.35;;;2.30;99.90;;;;;;5095054;28;20088;-66
2024/01/12 01:08:48;;;;;;;19.85;7.50;;;2.30;99.90;;;;;;5094905;28;20043;-66
2024/01/12 01:11:14;;;;;;;29.02;9.88;;;2.30;99.90;;;;;;5095040;28;20017;-66
2024/01/12 01:13:41;;;;;;;28.52;9.32;;;2.30;99.90;;;;;;5094844;28;20024;-66
2024/01/12 01:16:07;;;;;;;24.05;9.93;;;2.30;99.90;;;;;;5094864;28;20051;-66
2024/01/12 01:18:32;;;;;;;27.27;9.63;;;2.30;99.90;;;;;;5094944;28;20052;-66
2024/01/12 01:20:59;;;;;;;24.35;9.48;;;2.30;99.90;;;;;;5094747;28;20410;-66
2024/01/12 01:23:24;;;;;;;27.65;9.45;;;2.30;99.90;;;;;;5094750;28;20029;-66
2024/01/12 01:25:51;;;;;;;30.30;9.88;;;2.30;99.90;;;;;;5094667;28;20387;-66
2024/01/12 01:28:17;;;;;;;24.35;9.30;;;2.30;99.90;;;;;;5094686;28;20031;-66
2024/01/12 01:30:42;;;;;;;25.52;10.05;;;2.30;99.90;;;;;;5094585;28;20017;-66
2024/01/12 01:33:08;;;;;;;28.08;9.80;;;2.30;99.90;;;;;;5094436;28;20055;-66
2024/01/12 01:35:34;;;;;;;29.60;9.85;;;2.30;99.90;;;;;;5094652;28;20024;-66
2024/01/12 01:38:00;;;;;;;28.55;9.25;;;2.30;99.90;;;;;;5094444;28;20108;-66
2024/01/12 01:40:25;;;;;;;24.55;8.15;;;2.30;99.90;;;;;;5094487;28;20029;-66
2024/01/12 01:42:51;;;;;;;32.60;9.85;;;2.30;99.90;;;;;;5094296;28;20051;-66
2024/01/12 01:45:17;;;;;;;28.85;9.60;;;2.30;99.90;;;;;;5094245;28;20032;-66
2024/01/12 01:47:43;;;;;;;27.52;9.63;;;2.30;99.90;;;;;;5093970;28;20040;-66
2024/01/12 01:50:12;;;;;;;26.88;10.23;;;2.30;99.90;;;;;;5094202;28;20039;-66
2024/01/12 01:52:39;;;;;;;32.47;10.30;;;2.30;99.90;;;;;;5094159;28;20068;-66
2024/01/12 01:55:05;;;;;;;21.23;8.38;;;2.40;99.90;;;;;;5094136;28;20025;-66
2024/01/12 01:57:32;;;;;;;25.38;9.90;;;2.30;99.90;;;;;;5093511;28;20055;-66
2024/01/12 01:59:58;;;;;;;25.23;8.90;;;2.30;99.90;;;;;;5094146;28;20047;-66
2024/01/12 02:02:24;;;;;;;25.23;9.85;;;2.30;99.90;;;;;;5093859;28;20028;-66
2024/01/12 02:04:52;;;;;;;21.27;8.48;;;2.30;99.90;;;;;;5094000;28;20032;-66
2024/01/12 02:07:17;;;;;;;25.83;8.98;;;2.30;99.90;;;;;;5093856;28;20054;-66
2024/01/12 02:09:44;;;;;;;27.52;9.70;;;2.30;99.90;;;;;;5093792;28;20024;-66
2024/01/12 02:12:09;;;;;;;29.15;10.00;;;2.30;99.90;;;;;;5093750;28;20502;-66
2024/01/12 02:14:35;;;;;;;24.25;9.15;;;2.30;99.90;;;;;;5093639;28;20040;-66
2024/01/12 02:17:01;;;;;;;25.67;9.93;;;2.30;99.90;;;;;;5093665;28;20088;-66
2024/01/12 02:19:27;;;;;;;25.95;9.98;;;2.30;99.90;;;;;;5093618;28;20498;-66
2024/01/12 02:21:52;;;;;;;23.85;9.00;;;2.20;99.90;;;;;;5093584;28;20028;-66
2024/01/12 02:24:18;;;;;;;21.27;8.63;;;2.30;99.90;;;;;;5093540;28;20479;-66
2024/01/12 02:26:44;;;;;;;21.40;9.65;;;2.30;99.90;;;;;;5093540;28;20044;-66
2024/01/12 02:29:09;;;;;;;23.45;9.40;;;2.30;99.90;;;;;;5093287;28;20028;-66
2024/01/12 02:31:36;;;;;;;22.98;9.15;;;2.30;99.90;;;;;;5093438;28;20048;-66
2024/01/12 02:34:01;;;;;;;26.48;9.88;;;2.30;99.90;;;;;;5093189;28;20028;-66
2024/01/12 02:36:27;;;;;;;28.73;9.32;;;2.30;99.90;;;;;;5093312;28;20088;-66
2024/01/12 02:38:55;;;;;;;25.95;9.35;;;2.30;99.90;;;;;;5093221;28;20032;-66
2024/01/12 02:41:20;;;;;;;28.77;10.32;;;2.30;99.90;;;;;;5093171;28;20028;-66
2024/01/12 02:43:47;;;;;;;27.52;9.82;;;2.30;99.90;;;;;;5093021;28;20036;-66
2024/01/12 02:46:12;;;;;;;26.70;9.43;;;2.30;99.90;;;;;;5093068;28;20063;-66
2024/01/12 02:48:38;;;;;;;23.55;8.63;;;2.30;99.90;;;;;;5092961;28;20048;-66
2024/01/12 02:51:04;;;;;;;27.83;9.48;;;2.30;99.90;;;;;;5093006;28;20048;-66
2024/01/12 02:53:30;;;;;;;25.10;9.05;;;2.30;99.90;;;;;;5092992;28;20171;-66
2024/01/12 02:55:55;;;;;;;26.52;10.13;;;2.30;99.90;;;;;;5092948;28;20029;-66
2024/01/12 02:58:21;;;;;;;24.25;9.27;;;2.20;99.90;;;;;;5092809;28;20047;-66
2024/01/12 03:00:47;;;;;;;23.70;8.77;;;2.30;99.90;;;;;;5092899;28;20028;-66
2024/01/12 03:03:13;;;;;;;24.65;9.23;;;2.30;99.90;;;;;;5092610;28;20036;-66
2024/01/12 03:05:38;;;;;;;23.38;9.30;;;2.20;99.90;;;;;;5092697;28;20047;-66
2024/01/12 03:08:04;;;;;;;29.20;9.90;;;2.20;99.90;;;;;;5092241;28;20498;-66
2024/01/12 03:10:30;;;;;;;22.45;9.00;;;2.20;99.90;;;;;;5092197;28;20032;-66
2024/01/12 03:12:55;;;;;;;28.60;9.38;;;2.20;99.90;;;;;;5091489;28;20031;-66
2024/01/12 03:15:21;;;;;;;29.25;9.77;;;2.20;99.90;;;;;;5092654;28;20025;-66
2024/01/12 03:17:47;;;;;;;25.70;9.93;;;2.20;99.90;;;;;;5092741;28;20024;-66
2024/01/12 03:20:13;;;;;;;30.20;10.65;;;2.20;99.90;;;;;;5091422;28;20102;-66
2024/01/12 03:22:38;;;;;;;23.58;8.73;;;2.30;99.90;;;;;;5091529;28;20036;-66
2024/01/12 03:25:04;;;;;;;23.65;9.57;;;2.30;99.90;;;;;;5090588;28;20036;-66
2024/01/12 03:27:30;;;;;;;21.05;8.10;;;2.30;99.90;;;;;;5091317;28;20052;-66
2024/01/12 03:29:55;;;;;;;31.75;9.38;;;2.30;99.90;;;;;;5091384;28;20079;-66
2024/01/12 03:32:21;;;;;;;24.45;9.88;;;2.20;99.90;;;;;;5091182;28;20021;-66
2024/01/12 03:34:47;;;;;;;25.70;10.23;;;2.30;99.90;;;;;;5090851;28;20020;-66
2024/01/12 03:37:13;;;;;;;24.95;9.32;;;2.30;99.90;;;;;;5091230;28;20126;-66
2024/01/12 03:39:38;;;;;;;29.10;9.35;;;2.30;99.90;;;;;;5091354;28;20028;-66
2024/01/12 03:42:05;;;;;;;30.20;9.77;;;2.30;99.90;;;;;;5091094;28;20036;-66
2024/01/12 03:44:30;;;;;;;20.10;8.95;;;2.30;99.90;;;;;;5091116;28;20032;-66
2024/01/12 03:46:56;;;;;;;28.10;10.35;;;2.20;99.90;;;;;;5089702;28;20028;-66
2024/01/12 03:49:24;;;;;;;27.92;9.85;;;2.30;99.90;;;;;;5091044;28;20048;-66
2024/01/12 03:51:57;;;;;;;26.25;9.02;;;2.30;99.90;;;;;;5091236;28;20039;-66
2024/01/12 03:54:23;;;;;;;26.33;9.27;;;2.20;99.90;;;;;;5091174;28;20031;-66
2024/01/12 03:56:49;;;;;;;21.98;9.00;;;2.30;99.90;;;;;;5091098;28;20043;-65
2024/01/12 03:59:15;;;;;;;22.83;8.70;;;2.20;99.90;;;;;;5091359;28;20039;-66
2024/01/12 04:01:44;;;;;;;35.55;11.20;;;2.20;99.90;;;;;;5091853;28;20052;-66
2024/01/12 04:04:11;;;;;;;22.95;9.75;;;2.20;99.90;;;;;;5092129;28;20040;-66
2024/01/12 04:06:37;;;;;;;29.08;9.60;;;2.20;99.90;;;;;;5091928;28;20046;-66
2024/01/12 04:09:03;;;;;;;25.98;10.30;;;2.30;99.90;;;;;;5091962;28;20029;-66
2024/01/12 04:11:28;;;;;;;29.25;9.48;;;2.20;99.90;;;;;;5092150;28;20031;-66
2024/01/12 04:13:54;;;;;;;25.52;9.63;;;2.30;99.90;;;;;;5091985;28;20033;-66
2024/01/12 04:16:20;;;;;;;23.75;9.10;;;2.30;99.90;;;;;;5092023;28;20089;-66
2024/01/12 04:18:46;;;;;;;26.83;9.75;;;2.30;99.90;;;;;;5091898;28;20029;-66
2024/01/12 04:21:12;;;;;;;28.38;10.75;;;2.30;99.90;;;;;;5094558;28;20028;-66
2024/01/12 04:23:39;;;;;;;28.52;9.60;;;2.30;99.90;;;;;;5095844;28;20070;-65
2024/01/12 04:26:05;;;;;;;28.75;9.98;;;2.30;99.90;;;;;;5095843;28;20101;-66
2024/01/12 04:28:31;;;;;;;28.13;10.18;;;2.30;99.90;;;;;;5095698;28;20020;-66
2024/01/12 04:30:57;;;;;;;25.15;9.27;;;2.30;99.90;;;;;;5095651;28;20021;-66
2024/01/12 04:33:22;;;;;;;31.10;10.82;;;2.30;99.90;;;;;;5095454;28;20089;-66
2024/01/12 04:35:48;;;;;;;27.92;10.18;;;2.30;99.90;;;;;;5095627;28;20028;-66
2024/01/12 04:38:13;;;;;;;25.45;8.95;;;2.40;99.90;;;;;;5095558;28;20025;-66
2024/01/12 04:40:39;;;;;;;28.65;10.13;;;2.40;99.90;;;;;;5095536;28;20024;-66
2024/01/12 04:43:05;;;;;;;30.00;11.10;;;2.40;99.90;;;;;;5095500;28;20025;-66
2024/01/12 04:45:30;;;;;;;28.75;10.85;;;2.40;99.90;;;;;;5095514;28;20032;-66
2024/01/12 04:47:56;;;;;;;27.13;10.45;;;2.40;99.90;;;;;;5095256;28;20041;-66
2024/01/12 04:50:22;;;;;;;27.20;9.00;;;2.40;99.90;;;;;;5095485;28;20025;-66
2024/01/12 04:52:50;;;;;;;24.52;9.43;;;2.40;99.90;;;;;;5095180;28;20036;-66
2024/01/12 04:55:16;;;;;;;27.60;9.80;;;2.40;99.90;;;;;;5095203;28;20046;-66
2024/01/12 04:57:41;;;;;;;29.65;10.27;;;2.40;99.90;;;;;;5095243;28;20084;-66
2024/01/12 05:00:07;;;;;;;32.40;10.90;;;2.40;99.90;;;;;;5095222;28;20060;-66
2024/01/12 05:02:33;;;;;;;30.02;11.20;;;2.40;99.90;;;;;;5094975;28;20028;-66
2024/01/12 05:04:58;;;;;;;26.15;9.82;;;2.30;99.90;;;;;;5094239;28;20033;-66
2024/01/12 05:07:24;;;;;;;32.90;11.45;;;2.30;99.90;;;;;;5094968;28;20032;-66
2024/01/12 05:09:50;;;;;;;26.95;9.93;;;2.30;99.90;;;;;;5094927;28;20041;-66
2024/01/12 05:12:15;;;;;;;31.33;11.23;;;2.30;99.90;;;;;;5094135;28;20024;-66
2024/01/12 05:14:41;;;;;;;28.83;10.60;;;2.40;99.90;;;;;;5093825;28;20032;-66
2024/01/12 05:17:07;;;;;;;26.52;8.98;;;2.30;99.90;;;;;;5094901;28;20024;-66
2024/01/12 05:19:33;;;;;;;26.08;10.68;;;2.30;99.90;;;;;;5094906;28;20051;-66
2024/01/12 05:21:59;;;;;;;22.33;9.40;;;2.40;99.90;;;;;;5094717;28;20035;-66
2024/01/12 05:24:24;;;;;;;27.73;9.77;;;2.40;99.90;;;;;;5094738;28;20041;-66
2024/01/12 05:26:50;;;;;;;27.15;9.02;;;2.40;99.90;;;;;;5094643;28;20036;-66
2024/01/12 05:29:16;;;;;;;22.58;9.32;;;2.40;99.90;;;;;;5094645;28;20033;-66
2024/01/12 05:31:45;;;;;;;23.20;9.30;;;2.40;99.90;;;;;;5092309;28;20017;-66
2024/01/12 05:34:11;;;;;;;24.48;9.13;;;2.40;99.90;;;;;;5094538;28;20035;-66
2024/01/12 05:36:36;;;;;;;30.67;10.88;;;2.40;99.90;;;;;;5094270;28;20032;-66
2024/01/12 05:39:03;;;;;;;27.95;9.93;;;2.40;99.90;;;;;;5094466;28;20040;-66
2024/01/12 05:41:30;;;;;;;28.67;9.85;;;2.40;99.90;;;;;;5094423;28;20020;-66
2024/01/12 05:43:56;;;;;;;25.25;9.35;;;2.40;99.90;;;;;;5093300;28;20400;-66
2024/01/12 05:46:21;;;;;;;26.30;10.57;;;2.40;99.90;;;;;;5094271;28;20036;-66
2024/01/12 05:48:48;;;;;;;35.90;10.05;;;2.40;99.90;;;;;;5094111;28;20079;-66
2024/01/12 05:51:15;;;;;;;25.85;9.85;;;2.50;99.90;;;;;;5094191;28;20024;-66
2024/01/12 05:53:41;;;;;;;28.70;10.10;;;2.50;99.90;;;;;;5094250;28;20017;-66
2024/01/12 05:56:07;;;;;;;29.00;10.68;;;2.50;99.90;;;;;;5094152;28;20025;-66
2024/01/12 05:58:32;;;;;;;26.73;10.13;;;2.50;99.90;;;;;;5094095;28;20051;-66
2024/01/12 06:00:59;;;;;;;26.17;9.68;;;2.50;99.90;;;;;;5094085;28;20088;-66
2024/01/12 06:03:28;;;;;;;28.50;9.55;;;2.50;99.90;;;;;;5093813;28;20025;-66
2024/01/12 06:05:54;;;;;;;26.92;9.63;;;2.50;99.90;;;;;;5093737;28;20080;-66
2024/01/12 06:08:20;;;;;;;24.45;9.38;;;2.50;99.90;;;;;;5093775;28;20047;-66
2024/01/12 06:10:45;;;;;;;25.15;8.88;;;2.50;99.90;;;;;;5093914;28;20028;-66
2024/01/12 06:13:11;;;;;;;23.42;9.48;;;2.50;99.90;;;;;;5093817;28;20028;-66
2024/01/12 06:15:37;;;;;;;26.77;9.68;;;2.50;99.90;;;;;;5093807;28;20064;-66
2024/01/12 06:18:03;;;;;;;26.67;9.25;;;2.60;99.90;;;;;;5093596;28;20028;-67
2024/01/12 06:20:29;;;;;;;28.00;10.85;;;2.60;99.90;;;;;;5093358;28;20036;-66
2024/01/12 06:22:55;;;;;;;25.13;9.27;;;2.60;99.90;;;;;;5093599;28;20032;-66
2024/01/12 06:25:20;;;;;;;22.02;9.52;;;2.60;99.90;;;;;;5093629;28;20055;-66
2024/01/12 06:27:46;;;;;;;23.25;10.05;;;2.60;99.90;;;;;;5093367;28;20088;-66
2024/01/12 06:30:12;;;;;;;28.60;9.98;;;2.60;99.90;;;;;;5093488;28;20064;-66
2024/01/12 06:32:38;;;;;;;24.98;10.15;;;2.60;99.90;;;;;;5093210;28;20044;-66
2024/01/12 06:35:07;;;;;;;32.30;10.48;;;2.60;99.90;;;;;;5093324;28;20051;-66
2024/01/12 06:37:32;;;;;;;22.48;9.15;;;2.60;99.90;;;;;;5093235;28;20020;-66
2024/01/12 06:39:59;;;;;;;30.27;9.23;;;2.50;99.90;;;;;;5093262;28;20161;-66
2024/01/12 06:42:25;;;;;;;27.42;10.27;;;2.50;99.90;;;;;;5093227;28;20044;-66
2024/01/12 06:44:50;;;;;;;26.13;9.20;;;2.50;99.90;;;;;;5093067;28;20086;-66
2024/01/12 06:47:16;;;;;;;24.95;8.98;;;2.50;99.90;;;;;;5093085;28;20038;-66
2024/01/12 06:49:43;;;;;;;24.75;9.45;;;2.50;99.90;;;;;;5092889;28;20056;-66
2024/01/12 06:52:09;;;;;;;23.40;9.18;;;2.50;99.90;;;;;;5093086;28;20031;-66
2024/01/12 06:54:34;;;;;;;27.88;8.82;;;2.50;99.90;;;;;;5093041;28;20076;-67
2024/01/12 06:57:00;;;;;;;25.05;9.30;;;2.50;99.90;;;;;;5092953;28;20029;-67
2024/01/12 06:59:25;;;;;;;27.88;9.73;;;2.50;99.90;;;;;;5092841;28;20029;-67
2024/01/12 07:01:51;;;;;;;25.45;8.30;;;2.50;99.90;;;;;;5092666;28;20135;-67
2024/01/12 07:04:17;;;;;;;22.52;8.18;;;2.50;99.90;;;;;;5088116;28;20487;-67
2024/01/12 07:06:42;;;;;;;27.35;9.80;;;2.50;99.90;;;;;;5072652;28;20055;-67
2024/01/12 07:09:12;;;;;;;17.08;7.45;;;2.50;99.90;;;;;;5071452;28;20052;-66
2024/01/12 07:11:44;;;;;;;20.60;8.45;;;2.50;99.90;;;;;;5070675;28;20018;-67
2024/01/12 07:14:10;;;;;;;23.77;8.07;;;2.50;99.90;;;;;;5070488;28;20033;-66
2024/01/12 07:16:37;;;;;;;24.95;8.75;;;2.50;99.90;;;;;;5071507;28;20063;-66
2024/01/12 07:19:03;;;;;;;18.13;7.47;;;2.50;99.90;;;;;;5071388;28;20043;-66
2024/01/12 07:21:28;;;;;;;24.75;9.10;;;2.50;99.90;;;;;;5071839;28;20071;-66
2024/01/12 07:23:54;;;;;;;24.45;8.43;;;2.50;99.90;;;;;;5071990;28;20068;-66
2024/01/12 07:26:20;;;;;;;24.38;8.02;;;2.50;99.90;;;;;;5072297;28;20033;-66
2024/01/12 07:28:46;;;;;;;24.10;9.18;;;2.50;99.90;;;;;;5072355;28;20033;-67
2024/01/12 07:31:12;;;;;;;22.40;7.72;;;2.50;99.90;;;;;;5072308;28;20032;-67
2024/01/12 07:33:37;;;;;;;23.83;8.68;;;2.50;99.90;;;;;;5072189;28;20009;-66
2024/01/12 07:36:03;;;;;;;22.42;8.57;;;2.50;99.90;;;;;;5072325;28;20032;-67
2024/01/12 07:38:29;;;;;;;25.90;9.07;;;2.50;99.90;;;;;;5088950;28;20029;-66
2024/01/12 07:40:54;;;;;;;23.83;8.65;;;2.50;99.90;;;;;;5092361;28;20033;-67
2024/01/12 07:43:20;;;;;;;25.50;8.00;;;2.50;99.90;;;;;;5092287;28;20028;-66
2024/01/12 07:45:46;;;;;;;25.83;7.72;;;2.50;99.90;;;;;;5090979;28;20035;-66
2024/01/12 07:48:11;;;;;;;21.65;7.40;;;2.50;99.90;;;;;;5090543;28;20426;-66
2024/01/12 07:50:37;;;;;;;24.90;8.43;;;2.50;99.90;;;;;;5091094;28;20055;-66
2024/01/12 07:53:03;;;;;;;23.63;8.18;;;2.60;99.90;;;;;;5091709;28;20021;-67
2024/01/12 07:55:29;;;;;;;19.95;7.78;;;2.60;99.90;;;;;;5091247;28;20099;-67
2024/01/12 07:57:55;;;;;;;20.58;8.15;;;2.60;99.90;;;;;;5091782;28;20058;-67
2024/01/12 08:00:20;;;;;;;19.27;7.93;;;2.60;99.90;;;;;;5091839;28;20548;-66
2024/01/12 08:02:46;;;;;;;22.58;9.00;;;2.70;99.90;;;;;;5091874;28;20632;-66
2024/01/12 08:05:12;;;;;;;22.92;9.15;;;2.70;99.90;;;;;;5092038;28;20090;-67
2024/01/12 08:07:37;;;;;;;23.08;8.40;;;2.70;99.90;;;;;;5091825;28;20031;-66
2024/01/12 08:10:08;;;;;;;21.95;9.00;;;2.80;99.90;;;;;;5091917;28;20013;-67
2024/01/12 08:12:34;;;;;;;23.63;8.57;;;2.80;99.90;;;;;;5092006;28;20520;-67
2024/01/12 08:14:59;;;;;;;24.85;9.55;;;2.80;99.90;;;;;;5091893;28;20029;-67
2024/01/12 08:17:25;;;;;;;21.40;8.30;;;2.90;99.90;;;;;;5091002;28;20055;-67
2024/01/12 08:19:50;;;;;;;23.42;8.18;;;2.90;99.90;;;;;;5090867;28;20036;-66
2024/01/12 08:22:16;;;;;;;23.58;9.20;;;2.80;99.90;;;;;;5091924;28;20032;-67
2024/01/12 08:24:42;;;;;;;23.13;8.40;;;2.90;99.90;;;;;;5091897;28;20029;-67
2024/01/12 08:27:07;;;;;;;28.95;7.85;;;2.90;99.90;;;;;;5091726;28;20027;-66
2024/01/12 08:29:33;;;;;;;21.20;8.43;;;2.90;99.90;;;;;;5091693;28;20076;-67
2024/01/12 08:31:59;;;;;;;21.75;7.78;;;2.90;99.90;;;;;;5091582;28;20038;-67
2024/01/12 08:34:25;;;;;;;19.23;8.00;;;2.90;99.90;;;;;;5091851;28;20024;-66
2024/01/12 08:36:51;;;;;;;16.77;6.88;;;2.80;99.90;;;;;;5091750;28;20096;-67
2024/01/12 08:39:17;;;;;;;19.77;7.60;;;2.80;99.90;;;;;;5091728;28;20028;-67
2024/01/12 08:41:43;;;;;;;19.98;7.35;;;2.90;99.90;;;;;;5091739;28;20043;-66
2024/01/12 08:44:09;;;;;;;16.20;7.03;;;2.90;99.90;;;;;;5091671;28;20048;-67
2024/01/12 08:46:34;;;;;;;24.52;8.25;;;2.90;99.90;;;;;;5091644;28;20052;-67
2024/01/12 08:49:00;;;;;;;23.75;7.25;;;2.90;99.90;;;;;;5091454;28;20060;-66
2024/01/12 08:51:26;;;;;;;19.65;7.43;;;3.00;99.90;;;;;;5091693;28;20147;-67
2024/01/12 08:53:51;;;;;;;27.27;7.07;;;3.00;99.90;;;;;;5091686;28;20020;-67
2024/01/12 08:56:17;;;;;;;17.02;7.30;;;3.00;99.90;;;;;;5089648;28;20028;-67
2024/01/12 08:58:43;;;;;;;22.33;7.68;;;3.00;99.90;;;;;;5091148;28;20028;-68
2024/01/12 09:01:08;;;;;;;17.23;7.90;;;3.00;99.90;;;;;;5091479;28;20053;-67
2024/01/12 09:03:34;;;;;;;20.42;7.93;;;3.10;99.90;;;;;;5091138;28;20029;-67
2024/01/12 09:06:00;;;;;;;18.42;7.05;;;3.10;99.90;;;;;;5091098;28;20110;-67
2024/01/12 09:08:25;;;;;;;23.75;7.45;;;3.10;99.90;;;;;;5093816;28;20084;-67
2024/01/12 09:10:51;;;;;;;18.42;6.57;;;3.10;99.90;;;;;;5094750;28;20029;-67
2024/01/12 09:13:16;;;;;;;22.27;7.30;;;3.20;99.90;;;;;;5094697;28;20021;-68
2024/01/12 09:15:42;;;;;;;22.83;7.72;;;3.20;99.90;;;;;;5093840;28;20032;-67
2024/01/12 09:18:08;;;;;;;18.60;7.40;;;3.20;99.90;;;;;;5094461;28;20032;-67
2024/01/12 09:20:34;;;;;;;17.88;6.65;;;3.30;99.90;;;;;;5094448;28;20119;-67
2024/01/12 09:22:59;;;;;;;19.10;7.72;;;3.30;99.90;;;;;;5094595;28;20058;-67
2024/01/12 09:25:25;;;;;;;18.90;7.80;;;3.40;99.90;;;;;;5094608;28;20045;-67
2024/01/12 09:27:52;;;;;;;28.35;8.20;;;3.40;99.90;;;;;;5094169;28;20029;-67
2024/01/12 09:30:21;;;;;;;22.95;7.75;;;3.40;99.90;;;;;;5094216;28;20023;-67
2024/01/12 09:32:47;;;;;;;21.30;8.10;;;3.50;99.90;;;;;;5094225;28;20052;-67
2024/01/12 09:35:12;;;;;;;22.17;8.57;;;3.50;99.90;;;;;;5093406;28;20027;-67
2024/01/12 09:37:38;;;;;;;20.00;8.50;;;3.50;99.90;;;;;;5094346;28;20036;-67
2024/01/12 09:40:04;;;;;;;20.38;7.38;;;3.50;99.90;;;;;;5094244;28;20260;-67
2024/01/12 09:42:32;;;;;;;27.55;9.38;;;3.50;99.90;;;;;;5094005;28;20063;-67
2024/01/12 09:44:59;;;;;;;23.55;9.45;;;3.60;99.90;;;;;;5094273;28;20084;-67
2024/01/12 09:47:26;;;;;;;20.48;8.75;;;3.60;99.90;;;;;;5094102;28;20036;-67
2024/01/12 09:49:53;;;;;;;26.05;9.82;;;3.70;99.90;;;;;;5074055;28;20033;-67
2024/01/12 09:52:19;;;;;;;21.88;8.57;;;3.70;99.90;;;;;;5073922;28;20017;-67
2024/01/12 09:54:45;;;;;;;25.48;9.48;;;3.70;99.90;;;;;;5074029;28;20094;-68
2024/01/12 09:57:16;;;;;;;29.52;8.85;;;3.70;99.90;;;;;;5073612;28;20067;-67
2024/01/12 09:59:43;;;;;;;24.23;8.82;;;3.70;99.90;;;;;;5073816;28;20028;-68
2024/01/12 10:02:15;;;;;;;23.05;7.93;;;3.70;99.90;;;;;;5073468;28;20495;-67
2024/01/12 10:04:41;;;;;;;22.85;7.50;;;3.70;99.90;;;;;;5073835;28;20029;-67
2024/01/12 10:07:07;;;;;;;18.50;7.78;;;3.70;99.90;;;;;;5073558;28;20056;-67
2024/01/12 10:09:32;;;;;;;20.45;7.57;;;3.80;99.90;;;;;;5073530;28;20081;-66
2024/01/12 10:11:59;;;;;;;15.77;6.22;;;3.80;99.90;;;;;;5073495;28;20025;-66
2024/01/12 10:14:25;;;;;;;18.40;6.97;;;3.80;99.90;;;;;;5073435;28;20017;-67
2024/01/12 10:16:55;;;;;;;17.52;6.55;;;3.80;99.90;;;;;;5073651;28;20033;-67
2024/01/12 10:19:21;;;;;;;24.75;8.07;;;3.90;99.90;;;;;;5072887;28;20029;-67
2024/01/12 10:21:48;;;;;;;15.77;7.35;;;3.90;99.90;;;;;;5073320;28;20071;-67
2024/01/12 10:24:19;;;;;;;18.63;8.00;;;3.90;99.90;;;;;;5073472;28;20029;-68
2024/01/12 10:26:50;;;;;;;21.77;8.60;;;3.90;99.90;;;;;;5048863;28;20049;-67
2024/01/12 10:29:17;;;;;;;20.42;8.00;;;3.90;99.90;;;;;;5048876;28;20022;-66
2024/01/12 10:31:43;;;;;;;19.13;6.95;;;3.90;99.90;;;;;;5058270;28;20047;-67
2024/01/12 10:34:13;;;;;;;22.63;7.65;;;4.00;99.90;;;;;;5044655;28;20013;-67
2024/01/12 10:36:40;;;;;;;20.92;7.60;;;4.00;99.90;;;;;;5048901;28;20029;-67
2024/01/12 10:39:11;;;;;;;17.70;7.80;;;4.00;99.90;;;;;;5067544;28;20029;-67
2024/01/12 10:41:40;;;;;;;18.65;8.60;;;4.00;99.90;;;;;;5056453;28;20025;-67
2024/01/12 10:44:06;;;;;;;25.17;8.10;;;4.10;99.90;;;;;;5073015;28;20399;-67
2024/01/12 10:46:40;;;;;;;24.55;8.07;;;4.10;99.90;;;;;;5063099;28;20029;-67
2024/01/12 10:49:15;;;;;;;23.65;9.07;;;4.10;99.90;;;;;;5080838;28;20131;-67
2024/01/12 10:52:07;;;;;;;21.05;9.10;;;4.10;99.90;;;;;;5071030;28;20029;-67
2024/01/12 10:54:34;;;;;;;24.97;9.90;;;4.10;99.90;;;;;;5052363;28;20022;-67
2024/01/12 10:57:00;;;;;;;29.10;13.20;;;4.10;99.90;;;;;;5052892;28;20272;-67
2024/01/12 10:59:27;;;;;;;36.90;13.82;;;4.10;99.90;;;;;;5052550;28;20084;-67
2024/01/12 11:01:54;;;;;;;29.98;10.93;;;4.10;99.90;;;;;;5052652;28;20025;-66
2024/01/12 11:04:21;;;;;;;28.15;9.27;;;4.20;99.90;;;;;;5051687;28;20146;-67
2024/01/12 11:06:50;;;;;;;23.60;8.63;;;4.20;99.90;;;;;;5053757;28;20026;-66
2024/01/12 11:09:17;;;;;;;21.27;8.75;;;4.20;99.90;;;;;;5067630;28;20020;-67
2024/01/12 11:11:53;;;;;;;28.08;12.85;;;4.30;99.90;;;;;;5070337;28;20021;-67
2024/01/12 11:14:20;;;;;;;22.85;8.68;;;4.30;99.90;;;;;;5070264;28;20021;-66
2024/01/12 11:16:46;;;;;;;24.85;11.05;;;4.30;99.90;;;;;;5070769;28;20047;-67
2024/01/12 11:19:14;;;;;;;29.58;9.70;;;4.30;99.90;;;;;;5071154;28;20079;-67
2024/01/12 11:21:41;;;;;;;24.85;11.75;;;4.30;99.90;;;;;;5071603;28;20033;-67
2024/01/12 11:24:10;;;;;;;23.60;8.75;;;4.30;99.90;;;;;;5070719;28;20087;-67
2024/01/12 11:26:35;;;;;;;29.50;8.65;;;4.30;99.90;;;;;;5071545;28;20124;-67
2024/01/12 11:29:01;;;;;;;21.25;7.78;;;4.30;99.90;;;;;;5071253;28;20025;-66
2024/01/12 11:31:27;;;;;;;24.83;8.73;;;4.30;99.90;;;;;;5071750;28;20022;-67
2024/01/12 11:34:02;;;;;;;22.95;9.18;;;4.30;99.90;;;;;;5072199;28;20017;-66
2024/01/12 11:36:29;;;;;;;20.55;8.30;;;4.30;99.90;;;;;;5072373;28;20025;-67
2024/01/12 11:38:59;;;;;;;26.27;8.65;;;4.30;99.90;;;;;;5071976;28;20058;-67
2024/01/12 11:41:31;;;;;;;26.90;9.15;;;4.30;99.90;;;;;;5072204;28;20025;-67
2024/01/12 11:43:57;;;;;;;18.85;8.73;;;4.20;99.90;;;;;;5072233;28;20092;-67
2024/01/12 11:46:29;;;;;;;21.38;7.88;;;4.20;99.90;;;;;;5072024;28;20036;-67
2024/01/12 11:48:54;;;;;;;19.50;8.10;;;4.20;99.90;;;;;;5071916;28;20053;-67
2024/01/12 11:51:21;;;;;;;23.75;8.82;;;4.20;99.90;;;;;;5071037;28;20400;-67
2024/01/12 11:53:49;;;;;;;24.17;9.85;;;4.20;99.90;;;;;;5072144;28;20025;-67
2024/01/12 11:56:15;;;;;;;18.27;7.80;;;4.20;99.90;;;;;;5072130;28;20017;-67
2024/01/12 11:58:42;;;;;;;22.40;8.90;;;4.20;99.90;;;;;;5072086;28;20047;-67
2024/01/12 12:01:08;;;;;;;25.27;9.52;;;4.20;99.90;;;;;;5072123;28;20025;-67
2024/01/12 12:03:34;;;;;;;25.65;8.68;;;4.20;99.90;;;;;;5071877;28;20021;-67
2024/01/12 12:05:59;;;;;;;20.85;8.60;;;4.20;99.90;;;;;;5071966;28;20033;-67
2024/01/12 12:08:27;;;;;;;22.77;8.35;;;4.20;99.90;;;;;;5071924;28;20022;-67
2024/01/12 12:10:52;;;;;;;23.33;8.70;;;4.30;99.90;;;;;;5072140;28;20021;-67
2024/01/12 12:13:19;;;;;;;19.77;7.82;;;4.30;99.90;;;;;;5072010;28;20044;-67
2024/01/12 12:15:45;;;;;;;22.15;9.25;;;4.30;99.90;;;;;;5071962;28;20065;-67
2024/01/12 12:18:12;;;;;;;21.67;8.65;;;4.30;99.90;;;;;;5071947;28;20035;-67
2024/01/12 12:20:37;;;;;;;23.38;9.43;;;4.30;99.90;;;;;;5071914;28;20029;-67
2024/01/12 12:23:03;;;;;;;23.20;9.00;;;4.30;99.90;;;;;;5071746;28;20210;-67
2024/01/12 12:25:29;;;;;;;23.13;8.38;;;4.40;99.90;;;;;;5071839;28;20050;-67
2024/01/12 12:27:55;;;;;;;23.42;8.77;;;4.30;99.90;;;;;;5071650;28;20029;-67
2024/01/12 12:30:21;;;;;;;19.50;8.57;;;4.40;99.90;;;;;;5071776;28;20052;-67
2024/01/12 12:32:47;;;;;;;23.98;8.80;;;4.40;99.90;;;;;;5071535;28;20026;-67
2024/01/12 12:35:17;;;;;;;22.98;7.82;;;4.40;99.90;;;;;;5071706;28;20017;-67
2024/01/12 12:37:51;;;;;;;31.30;9.18;;;4.40;99.90;;;;;;5071534;28;20028;-67
2024/01/12 12:40:17;;;;;;;23.17;8.48;;;4.40;99.90;;;;;;5071673;28;20048;-67